sensor_id;sensor_type;location;lat;lon;timestamp;pressure;altitude;pressure_sealevel;temperature;humidity
43480;BME280;29067;35.492;-97.520;2023-09-08T00:00:06;96643.70;;;37.26;22.31
43480;BME280;29067;35.492;-97.520;2023-09-08T00:02:33;96641.80;;;37.55;22.33
43480;BME280;29067;35.492;-97.520;2023-09-08T00:05:02;96644.83;;;37.54;22.59
43480;BME280;29067;35.492;-97.520;2023-09-08T00:07:30;96646.47;;;38.32;22.28
43480;BME280;29067;35.492;-97.520;2023-09-08T00:09:58;96649.96;;;38.43;22.37
43480;BME280;29067;35.492;-97.520;2023-09-08T00:12:26;96647.28;;;39.48;22.02
43480;BME280;29067;35.492;-97.520;2023-09-08T00:14:55;96644.70;;;39.35;21.89
43480;BME280;29067;35.492;-97.520;2023-09-08T00:17:23;96648.08;;;37.73;22.29
43480;BME280;29067;35.492;-97.520;2023-09-08T00:19:51;96643.83;;;37.39;22.89
43480;BME280;29067;35.492;-97.520;2023-09-08T00:22:19;96637.18;;;38.75;22.17
43480;BME280;29067;35.492;-97.520;2023-09-08T00:24:47;96633.23;;;38.72;22.03
43480;BME280;29067;35.492;-97.520;2023-09-08T00:27:16;96634.69;;;37.44;22.58
43480;BME280;29067;35.492;-97.520;2023-09-08T00:29:44;96635.46;;;37.29;22.91
43480;BME280;29067;35.492;-97.520;2023-09-08T00:32:12;96633.25;;;38.38;22.58
43480;BME280;29067;35.492;-97.520;2023-09-08T00:34:46;96634.36;;;38.44;22.20
43480;BME280;29067;35.492;-97.520;2023-09-08T00:37:14;96642.28;;;38.56;22.13
43480;BME280;29067;35.492;-97.520;2023-09-08T00:39:42;96645.64;;;38.66;22.35
43480;BME280;29067;35.492;-97.520;2023-09-08T00:42:10;96650.55;;;38.53;22.02
43480;BME280;29067;35.492;-97.520;2023-09-08T00:44:38;96656.94;;;38.29;22.47
43480;BME280;29067;35.492;-97.520;2023-09-08T00:47:07;96658.06;;;38.26;22.42
43480;BME280;29067;35.492;-97.520;2023-09-08T00:49:35;96663.48;;;38.82;22.21
43480;BME280;29067;35.492;-97.520;2023-09-08T00:52:03;96661.97;;;39.04;22.06
43480;BME280;29067;35.492;-97.520;2023-09-08T00:54:31;96663.97;;;37.95;22.62
43480;BME280;29067;35.492;-97.520;2023-09-08T00:57:02;96662.31;;;38.05;22.70
43480;BME280;29067;35.492;-97.520;2023-09-08T00:59:32;96660.11;;;37.28;23.17
43480;BME280;29067;35.492;-97.520;2023-09-08T01:02:08;96664.76;;;38.04;22.93
43480;BME280;29067;35.492;-97.520;2023-09-08T01:04:35;96668.80;;;38.58;23.13
43480;BME280;29067;35.492;-97.520;2023-09-08T01:07:04;96673.12;;;36.63;24.24
43480;BME280;29067;35.492;-97.520;2023-09-08T01:09:32;96672.06;;;38.03;24.15
43480;BME280;29067;35.492;-97.520;2023-09-08T01:12:02;96674.68;;;36.46;24.92
43480;BME280;29067;35.492;-97.520;2023-09-08T01:14:30;96678.13;;;33.58;28.39
43480;BME280;29067;35.492;-97.520;2023-09-08T01:16:58;96675.65;;;32.91;30.08
43480;BME280;29067;35.492;-97.520;2023-09-08T01:19:27;96672.80;;;34.21;30.97
43480;BME280;29067;35.492;-97.520;2023-09-08T01:22:13;96670.75;;;33.32;31.18
43480;BME280;29067;35.492;-97.520;2023-09-08T01:25:19;96671.73;;;33.69;31.94
43480;BME280;29067;35.492;-97.520;2023-09-08T01:27:51;96668.81;;;34.95;31.07
43480;BME280;29067;35.492;-97.520;2023-09-08T01:30:21;96668.65;;;34.65;31.75
43480;BME280;29067;35.492;-97.520;2023-09-08T01:32:51;96665.96;;;34.39;31.40
43480;BME280;29067;35.492;-97.520;2023-09-08T01:35:20;96665.53;;;33.75;31.94
43480;BME280;29067;35.492;-97.520;2023-09-08T01:37:49;96666.12;;;34.34;31.80
43480;BME280;29067;35.492;-97.520;2023-09-08T01:40:17;96662.62;;;33.75;32.10
43480;BME280;29067;35.492;-97.520;2023-09-08T01:42:45;96667.62;;;33.48;32.83
43480;BME280;29067;35.492;-97.520;2023-09-08T01:45:13;96673.97;;;33.73;32.78
43480;BME280;29067;35.492;-97.520;2023-09-08T01:47:42;96677.43;;;33.54;33.06
43480;BME280;29067;35.492;-97.520;2023-09-08T01:50:10;96680.98;;;33.11;33.21
43480;BME280;29067;35.492;-97.520;2023-09-08T01:52:38;96687.60;;;33.53;33.08
43480;BME280;29067;35.492;-97.520;2023-09-08T01:55:07;96689.20;;;33.72;32.82
43480;BME280;29067;35.492;-97.520;2023-09-08T01:57:34;96688.71;;;34.11;32.58
43480;BME280;29067;35.492;-97.520;2023-09-08T02:00:04;96682.71;;;33.60;33.15
43480;BME280;29067;35.492;-97.520;2023-09-08T02:02:32;96679.52;;;33.70;32.74
43480;BME280;29067;35.492;-97.520;2023-09-08T02:05:00;96683.88;;;31.45;34.90
43480;BME280;29067;35.492;-97.520;2023-09-08T02:07:29;96681.87;;;32.49;34.14
43480;BME280;29067;35.492;-97.520;2023-09-08T02:09:57;96684.65;;;32.37;34.49
43480;BME280;29067;35.492;-97.520;2023-09-08T02:12:25;96689.94;;;31.70;35.23
43480;BME280;29067;35.492;-97.520;2023-09-08T02:14:53;96694.31;;;32.54;34.67
43480;BME280;29067;35.492;-97.520;2023-09-08T02:17:21;96694.96;;;32.99;34.17
43480;BME280;29067;35.492;-97.520;2023-09-08T02:19:50;96700.58;;;32.47;34.58
43480;BME280;29067;35.492;-97.520;2023-09-08T02:22:18;96697.37;;;33.14;33.94
43480;BME280;29067;35.492;-97.520;2023-09-08T02:24:46;96698.57;;;32.21;34.31
43480;BME280;29067;35.492;-97.520;2023-09-08T02:27:15;96701.36;;;32.35;34.46
43480;BME280;29067;35.492;-97.520;2023-09-08T02:29:43;96694.32;;;32.29;34.78
43480;BME280;29067;35.492;-97.520;2023-09-08T02:32:11;96692.65;;;33.14;33.79
43480;BME280;29067;35.492;-97.520;2023-09-08T02:34:39;96693.07;;;32.39;34.28
43480;BME280;29067;35.492;-97.520;2023-09-08T02:37:08;96693.61;;;31.91;35.51
43480;BME280;29067;35.492;-97.520;2023-09-08T02:39:36;96698.72;;;31.94;35.11
43480;BME280;29067;35.492;-97.520;2023-09-08T02:42:05;96699.22;;;29.91;36.17
43480;BME280;29067;35.492;-97.520;2023-09-08T02:44:33;96691.65;;;30.87;35.71
43480;BME280;29067;35.492;-97.520;2023-09-08T02:47:01;96694.87;;;30.69;35.99
43480;BME280;29067;35.492;-97.520;2023-09-08T02:49:29;96698.93;;;30.98;35.82
43480;BME280;29067;35.492;-97.520;2023-09-08T02:51:58;96707.84;;;31.36;35.25
43480;BME280;29067;35.492;-97.520;2023-09-08T02:54:26;96713.69;;;30.70;35.90
43480;BME280;29067;35.492;-97.520;2023-09-08T02:56:54;96714.77;;;30.09;36.07
43480;BME280;29067;35.492;-97.520;2023-09-08T02:59:22;96715.54;;;31.89;35.72
43480;BME280;29067;35.492;-97.520;2023-09-08T03:01:51;96718.08;;;31.61;35.43
43480;BME280;29067;35.492;-97.520;2023-09-08T03:04:20;96728.86;;;31.39;35.61
43480;BME280;29067;35.492;-97.520;2023-09-08T03:06:53;96729.07;;;32.27;34.77
43480;BME280;29067;35.492;-97.520;2023-09-08T03:09:22;96735.17;;;29.95;35.95
43480;BME280;29067;35.492;-97.520;2023-09-08T03:11:50;96735.68;;;31.10;34.98
43480;BME280;29067;35.492;-97.520;2023-09-08T03:14:18;96737.26;;;31.45;35.28
43480;BME280;29067;35.492;-97.520;2023-09-08T03:16:52;96738.31;;;30.55;36.07
43480;BME280;29067;35.492;-97.520;2023-09-08T03:19:20;96733.47;;;30.27;36.24
43480;BME280;29067;35.492;-97.520;2023-09-08T03:21:48;96730.74;;;29.60;36.82
43480;BME280;29067;35.492;-97.520;2023-09-08T03:24:22;96733.24;;;29.32;36.80
43480;BME280;29067;35.492;-97.520;2023-09-08T03:26:50;96733.55;;;29.74;36.98
43480;BME280;29067;35.492;-97.520;2023-09-08T03:29:18;96733.64;;;29.97;36.75
43480;BME280;29067;35.492;-97.520;2023-09-08T03:31:47;96730.64;;;30.57;36.42
43480;BME280;29067;35.492;-97.520;2023-09-08T03:34:15;96732.68;;;30.17;36.96
43480;BME280;29067;35.492;-97.520;2023-09-08T03:36:43;96736.27;;;31.07;36.27
43480;BME280;29067;35.492;-97.520;2023-09-08T03:39:12;96740.97;;;29.92;36.63
43480;BME280;29067;35.492;-97.520;2023-09-08T03:41:42;96745.22;;;29.97;37.41
43480;BME280;29067;35.492;-97.520;2023-09-08T03:44:09;96736.76;;;30.10;36.13
43480;BME280;29067;35.492;-97.520;2023-09-08T03:46:38;96737.74;;;30.22;36.30
43480;BME280;29067;35.492;-97.520;2023-09-08T03:49:06;96739.90;;;31.08;36.17
43480;BME280;29067;35.492;-97.520;2023-09-08T03:51:45;96742.13;;;29.41;37.55
43480;BME280;29067;35.492;-97.520;2023-09-08T03:54:13;96738.18;;;29.90;36.62
43480;BME280;29067;35.492;-97.520;2023-09-08T03:56:41;96739.71;;;29.79;36.41
43480;BME280;29067;35.492;-97.520;2023-09-08T03:59:09;96742.58;;;29.41;37.09
43480;BME280;29067;35.492;-97.520;2023-09-08T04:01:38;96741.47;;;30.15;36.50
43480;BME280;29067;35.492;-97.520;2023-09-08T04:04:06;96746.25;;;30.25;36.88
43480;BME280;29067;35.492;-97.520;2023-09-08T04:06:34;96742.58;;;30.10;35.90
43480;BME280;29067;35.492;-97.520;2023-09-08T04:09:03;96743.13;;;30.08;36.09
43480;BME280;29067;35.492;-97.520;2023-09-08T04:11:32;96741.73;;;31.13;35.44
43480;BME280;29067;35.492;-97.520;2023-09-08T04:14:00;96743.82;;;29.86;36.78
43480;BME280;29067;35.492;-97.520;2023-09-08T04:16:28;96742.77;;;28.93;36.90
43480;BME280;29067;35.492;-97.520;2023-09-08T04:18:57;96746.91;;;28.77;37.00
43480;BME280;29067;35.492;-97.520;2023-09-08T04:21:27;96748.56;;;29.78;36.94
43480;BME280;29067;35.492;-97.520;2023-09-08T04:23:54;96750.78;;;27.56;38.65
43480;BME280;29067;35.492;-97.520;2023-09-08T04:26:23;96744.61;;;29.81;37.00
43480;BME280;29067;35.492;-97.520;2023-09-08T04:28:51;96748.71;;;28.47;38.40
43480;BME280;29067;35.492;-97.520;2023-09-08T04:31:19;96741.48;;;29.16;37.03
43480;BME280;29067;35.492;-97.520;2023-09-08T04:33:47;96737.76;;;29.88;37.26
43480;BME280;29067;35.492;-97.520;2023-09-08T04:36:15;96738.85;;;29.55;37.72
43480;BME280;29067;35.492;-97.520;2023-09-08T04:38:43;96738.67;;;29.41;37.73
43480;BME280;29067;35.492;-97.520;2023-09-08T04:41:11;96740.95;;;28.78;38.48
43480;BME280;29067;35.492;-97.520;2023-09-08T04:43:40;96739.44;;;29.64;37.71
43480;BME280;29067;35.492;-97.520;2023-09-08T04:46:08;96748.91;;;28.40;38.87
43480;BME280;29067;35.492;-97.520;2023-09-08T04:48:36;96748.88;;;28.40;38.96
43480;BME280;29067;35.492;-97.520;2023-09-08T04:51:04;96740.39;;;29.61;37.96
43480;BME280;29067;35.492;-97.520;2023-09-08T04:53:33;96744.39;;;28.97;38.51
43480;BME280;29067;35.492;-97.520;2023-09-08T04:56:01;96747.93;;;28.36;39.21
43480;BME280;29067;35.492;-97.520;2023-09-08T04:58:29;96740.48;;;28.90;38.10
43480;BME280;29067;35.492;-97.520;2023-09-08T05:00:57;96741.38;;;29.59;37.27
43480;BME280;29067;35.492;-97.520;2023-09-08T05:03:25;96738.27;;;28.92;38.16
43480;BME280;29067;35.492;-97.520;2023-09-08T05:05:54;96742.63;;;28.55;38.41
43480;BME280;29067;35.492;-97.520;2023-09-08T05:08:23;96735.89;;;29.38;38.16
43480;BME280;29067;35.492;-97.520;2023-09-08T05:10:52;96738.57;;;28.64;38.83
43480;BME280;29067;35.492;-97.520;2023-09-08T05:13:20;96736.96;;;28.84;38.88
43480;BME280;29067;35.492;-97.520;2023-09-08T05:15:48;96735.32;;;28.99;38.57
43480;BME280;29067;35.492;-97.520;2023-09-08T05:18:17;96730.77;;;28.75;38.32
43480;BME280;29067;35.492;-97.520;2023-09-08T05:20:45;96728.73;;;28.12;39.31
43480;BME280;29067;35.492;-97.520;2023-09-08T05:23:15;96722.03;;;29.41;38.29
43480;BME280;29067;35.492;-97.520;2023-09-08T05:25:44;96725.54;;;28.31;39.12
43480;BME280;29067;35.492;-97.520;2023-09-08T05:28:21;96720.17;;;29.24;38.35
43480;BME280;29067;35.492;-97.520;2023-09-08T05:30:51;96721.07;;;28.21;38.66
43480;BME280;29067;35.492;-97.520;2023-09-08T05:33:19;96717.75;;;29.51;37.96
43480;BME280;29067;35.492;-97.520;2023-09-08T05:35:54;96717.74;;;27.79;39.56
43480;BME280;29067;35.492;-97.520;2023-09-08T05:38:22;96716.45;;;28.66;38.63
43480;BME280;29067;35.492;-97.520;2023-09-08T05:40:51;96719.93;;;28.60;39.28
43480;BME280;29067;35.492;-97.520;2023-09-08T05:43:19;96718.43;;;28.63;38.64
43480;BME280;29067;35.492;-97.520;2023-09-08T05:45:47;96719.56;;;27.83;39.42
43480;BME280;29067;35.492;-97.520;2023-09-08T05:48:15;96717.70;;;28.38;38.99
43480;BME280;29067;35.492;-97.520;2023-09-08T05:50:44;96716.95;;;28.23;39.05
43480;BME280;29067;35.492;-97.520;2023-09-08T05:53:12;96714.52;;;28.24;39.12
43480;BME280;29067;35.492;-97.520;2023-09-08T05:55:40;96714.53;;;27.90;39.37
43480;BME280;29067;35.492;-97.520;2023-09-08T05:58:09;96709.60;;;28.95;38.39
43480;BME280;29067;35.492;-97.520;2023-09-08T06:00:37;96706.43;;;28.73;38.52
43480;BME280;29067;35.492;-97.520;2023-09-08T06:03:06;96707.91;;;28.83;38.86
43480;BME280;29067;35.492;-97.520;2023-09-08T06:05:45;96712.80;;;27.27;40.05
43480;BME280;29067;35.492;-97.520;2023-09-08T06:08:13;96711.26;;;28.81;38.55
43480;BME280;29067;35.492;-97.520;2023-09-08T06:10:41;96712.80;;;28.16;39.17
43480;BME280;29067;35.492;-97.520;2023-09-08T06:13:10;96708.56;;;29.83;37.77
43480;BME280;29067;35.492;-97.520;2023-09-08T06:15:38;96714.94;;;28.31;39.02
43480;BME280;29067;35.492;-97.520;2023-09-08T06:18:12;96713.99;;;28.72;38.57
43480;BME280;29067;35.492;-97.520;2023-09-08T06:20:45;96712.15;;;28.66;38.64
43480;BME280;29067;35.492;-97.520;2023-09-08T06:23:19;96708.53;;;28.87;38.25
43480;BME280;29067;35.492;-97.520;2023-09-08T06:25:56;96706.38;;;29.69;37.98
43480;BME280;29067;35.492;-97.520;2023-09-08T06:28:24;96702.17;;;29.85;36.96
43480;BME280;29067;35.492;-97.520;2023-09-08T06:30:53;96701.08;;;28.90;38.11
43480;BME280;29067;35.492;-97.520;2023-09-08T06:33:26;96700.35;;;29.57;37.47
43480;BME280;29067;35.492;-97.520;2023-09-08T06:35:55;96706.35;;;28.58;38.38
43480;BME280;29067;35.492;-97.520;2023-09-08T06:38:23;96708.81;;;27.99;38.97
43480;BME280;29067;35.492;-97.520;2023-09-08T06:40:51;96707.58;;;27.50;39.46
43480;BME280;29067;35.492;-97.520;2023-09-08T06:43:19;96707.48;;;28.43;38.64
43480;BME280;29067;35.492;-97.520;2023-09-08T06:45:48;96705.30;;;29.00;38.12
43480;BME280;29067;35.492;-97.520;2023-09-08T06:48:26;96711.16;;;27.73;40.18
43480;BME280;29067;35.492;-97.520;2023-09-08T06:50:59;96715.23;;;27.48;39.98
43480;BME280;29067;35.492;-97.520;2023-09-08T06:53:32;96714.56;;;28.16;39.44
43480;BME280;29067;35.492;-97.520;2023-09-08T06:56:00;96712.69;;;27.90;39.73
43480;BME280;29067;35.492;-97.520;2023-09-08T06:58:28;96714.19;;;29.04;38.45
43480;BME280;29067;35.492;-97.520;2023-09-08T07:00:57;96715.38;;;27.78;40.04
43480;BME280;29067;35.492;-97.520;2023-09-08T07:03:25;96714.81;;;28.60;39.47
43480;BME280;29067;35.492;-97.520;2023-09-08T07:05:58;96714.94;;;28.62;39.38
43480;BME280;29067;35.492;-97.520;2023-09-08T07:08:26;96710.70;;;28.36;39.73
43480;BME280;29067;35.492;-97.520;2023-09-08T07:10:55;96712.12;;;28.99;39.04
43480;BME280;29067;35.492;-97.520;2023-09-08T07:13:23;96718.98;;;28.26;38.87
43480;BME280;29067;35.492;-97.520;2023-09-08T07:15:51;96716.81;;;29.01;38.39
43480;BME280;29067;35.492;-97.520;2023-09-08T07:18:20;96714.97;;;29.66;37.83
43480;BME280;29067;35.492;-97.520;2023-09-08T07:20:53;96717.46;;;27.55;39.35
43480;BME280;29067;35.492;-97.520;2023-09-08T07:23:26;96719.48;;;27.87;39.04
43480;BME280;29067;35.492;-97.520;2023-09-08T07:25:54;96721.54;;;28.98;38.03
43480;BME280;29067;35.492;-97.520;2023-09-08T07:28:33;96721.75;;;30.31;37.21
43480;BME280;29067;35.492;-97.520;2023-09-08T07:31:02;96721.70;;;29.72;36.91
43480;BME280;29067;35.492;-97.520;2023-09-08T07:33:31;96728.01;;;28.15;38.30
43480;BME280;29067;35.492;-97.520;2023-09-08T07:36:04;96721.77;;;29.24;37.44
43480;BME280;29067;35.492;-97.520;2023-09-08T07:38:32;96725.40;;;29.48;37.53
43480;BME280;29067;35.492;-97.520;2023-09-08T07:41:07;96724.58;;;30.01;37.25
43480;BME280;29067;35.492;-97.520;2023-09-08T07:43:41;96728.88;;;28.32;38.02
43480;BME280;29067;35.492;-97.520;2023-09-08T07:46:09;96729.62;;;28.21;38.70
43480;BME280;29067;35.492;-97.520;2023-09-08T07:48:37;96727.16;;;29.17;37.48
43480;BME280;29067;35.492;-97.520;2023-09-08T07:51:06;96729.95;;;28.81;38.40
43480;BME280;29067;35.492;-97.520;2023-09-08T07:53:34;96735.36;;;28.61;38.17
43480;BME280;29067;35.492;-97.520;2023-09-08T07:56:02;96734.95;;;29.55;37.37
43480;BME280;29067;35.492;-97.520;2023-09-08T07:58:31;96742.47;;;28.04;39.26
43480;BME280;29067;35.492;-97.520;2023-09-08T08:00:59;96744.67;;;28.39;38.49
43480;BME280;29067;35.492;-97.520;2023-09-08T08:03:27;96750.47;;;28.45;38.09
43480;BME280;29067;35.492;-97.520;2023-09-08T08:05:57;96751.48;;;27.16;39.69
43480;BME280;29067;35.492;-97.520;2023-09-08T08:08:24;96751.83;;;28.12;39.83
43480;BME280;29067;35.492;-97.520;2023-09-08T08:10:58;96751.04;;;28.90;38.77
43480;BME280;29067;35.492;-97.520;2023-09-08T08:13:26;96751.36;;;27.47;39.82
43480;BME280;29067;35.492;-97.520;2023-09-08T08:15:55;96752.72;;;29.34;38.64
43480;BME280;29067;35.492;-97.520;2023-09-08T08:18:23;96750.53;;;28.26;39.25
43480;BME280;29067;35.492;-97.520;2023-09-08T08:20:52;96746.23;;;28.56;39.02
43480;BME280;29067;35.492;-97.520;2023-09-08T08:23:20;96743.09;;;28.53;38.31
43480;BME280;29067;35.492;-97.520;2023-09-08T08:25:54;96739.43;;;28.08;38.72
43480;BME280;29067;35.492;-97.520;2023-09-08T08:28:23;96741.77;;;29.13;38.22
43480;BME280;29067;35.492;-97.520;2023-09-08T08:30:51;96739.57;;;28.37;39.28
43480;BME280;29067;35.492;-97.520;2023-09-08T08:33:19;96738.83;;;27.72;40.01
43480;BME280;29067;35.492;-97.520;2023-09-08T08:35:51;96736.67;;;26.62;40.94
43480;BME280;29067;35.492;-97.520;2023-09-08T08:38:27;96734.40;;;27.39;40.41
43480;BME280;29067;35.492;-97.520;2023-09-08T08:40:57;96737.07;;;27.65;39.79
43480;BME280;29067;35.492;-97.520;2023-09-08T08:43:29;96735.15;;;28.19;39.32
43480;BME280;29067;35.492;-97.520;2023-09-08T08:45:59;96740.68;;;27.91;39.45
43480;BME280;29067;35.492;-97.520;2023-09-08T08:48:28;96741.84;;;28.77;38.69
43480;BME280;29067;35.492;-97.520;2023-09-08T08:50:57;96748.70;;;26.34;41.03
43480;BME280;29067;35.492;-97.520;2023-09-08T08:53:26;96750.16;;;27.32;40.25
43480;BME280;29067;35.492;-97.520;2023-09-08T08:55:56;96750.84;;;27.84;39.80
43480;BME280;29067;35.492;-97.520;2023-09-08T08:58:28;96750.28;;;28.27;39.14
43480;BME280;29067;35.492;-97.520;2023-09-08T09:00:57;96751.98;;;28.43;39.40
43480;BME280;29067;35.492;-97.520;2023-09-08T09:03:28;96753.97;;;28.80;38.86
43480;BME280;29067;35.492;-97.520;2023-09-08T09:05:57;96741.55;;;26.73;40.44
43480;BME280;29067;35.492;-97.520;2023-09-08T09:08:25;96750.23;;;27.49;39.98
43480;BME280;29067;35.492;-97.520;2023-09-08T09:11:05;96748.10;;;26.96;40.65
43480;BME280;29067;35.492;-97.520;2023-09-08T09:13:38;96752.29;;;27.92;39.76
43480;BME280;29067;35.492;-97.520;2023-09-08T09:16:07;96748.83;;;28.85;39.10
43480;BME280;29067;35.492;-97.520;2023-09-08T09:18:35;96751.12;;;27.44;39.98
43480;BME280;29067;35.492;-97.520;2023-09-08T09:21:41;96750.53;;;28.23;39.27
43480;BME280;29067;35.492;-97.520;2023-09-08T09:24:14;96747.48;;;28.42;38.99
43480;BME280;29067;35.492;-97.520;2023-09-08T09:26:42;96751.45;;;26.55;40.79
43480;BME280;29067;35.492;-97.520;2023-09-08T09:29:13;96750.12;;;27.55;39.81
43480;BME280;29067;35.492;-97.520;2023-09-08T09:31:51;96745.66;;;26.95;40.43
43480;BME280;29067;35.492;-97.520;2023-09-08T09:34:20;96745.14;;;27.02;40.38
43480;BME280;29067;35.492;-97.520;2023-09-08T09:36:48;96742.39;;;27.19;40.21
43480;BME280;29067;35.492;-97.520;2023-09-08T09:39:23;96744.88;;;27.68;40.22
43480;BME280;29067;35.492;-97.520;2023-09-08T09:41:58;96744.86;;;27.10;40.31
43480;BME280;29067;35.492;-97.520;2023-09-08T09:44:26;96746.41;;;28.01;40.29
43480;BME280;29067;35.492;-97.520;2023-09-08T09:46:54;96751.71;;;26.69;41.35
43480;BME280;29067;35.492;-97.520;2023-09-08T09:49:23;96754.11;;;25.96;42.36
43480;BME280;29067;35.492;-97.520;2023-09-08T09:51:58;96757.31;;;26.32;42.13
43480;BME280;29067;35.492;-97.520;2023-09-08T09:54:30;96761.97;;;26.55;42.22
43480;BME280;29067;35.492;-97.520;2023-09-08T09:57:09;96768.25;;;26.37;42.42
43480;BME280;29067;35.492;-97.520;2023-09-08T09:59:44;96770.02;;;27.70;41.11
43480;BME280;29067;35.492;-97.520;2023-09-08T10:02:14;96770.29;;;26.27;42.48
43480;BME280;29067;35.492;-97.520;2023-09-08T10:04:53;96770.54;;;26.72;42.21
43480;BME280;29067;35.492;-97.520;2023-09-08T10:07:22;96766.17;;;26.07;41.94
43480;BME280;29067;35.492;-97.520;2023-09-08T10:09:52;96764.92;;;26.61;41.57
43480;BME280;29067;35.492;-97.520;2023-09-08T10:12:20;96771.00;;;25.99;42.92
43480;BME280;29067;35.492;-97.520;2023-09-08T10:14:54;96773.23;;;26.22;42.20
43480;BME280;29067;35.492;-97.520;2023-09-08T10:17:27;96768.05;;;26.86;42.04
43480;BME280;29067;35.492;-97.520;2023-09-08T10:20:01;96767.18;;;26.01;43.06
43480;BME280;29067;35.492;-97.520;2023-09-08T10:22:30;96768.71;;;26.18;42.99
43480;BME280;29067;35.492;-97.520;2023-09-08T10:25:05;96769.02;;;26.62;42.44
43480;BME280;29067;35.492;-97.520;2023-09-08T10:27:33;96770.80;;;26.77;42.51
43480;BME280;29067;35.492;-97.520;2023-09-08T10:30:03;96770.40;;;25.77;43.19
43480;BME280;29067;35.492;-97.520;2023-09-08T10:32:33;96773.18;;;25.51;42.78
43480;BME280;29067;35.492;-97.520;2023-09-08T10:35:03;96772.72;;;26.85;41.97
43480;BME280;29067;35.492;-97.520;2023-09-08T10:37:32;96776.84;;;25.83;43.06
43480;BME280;29067;35.492;-97.520;2023-09-08T10:40:22;96777.40;;;26.12;42.82
43480;BME280;29067;35.492;-97.520;2023-09-08T10:43:06;96780.68;;;26.34;42.64
43480;BME280;29067;35.492;-97.520;2023-09-08T10:45:35;96782.02;;;25.66;42.82
43480;BME280;29067;35.492;-97.520;2023-09-08T10:48:03;96792.49;;;25.41;43.74
43480;BME280;29067;35.492;-97.520;2023-09-08T10:50:34;96792.00;;;25.76;44.04
43480;BME280;29067;35.492;-97.520;2023-09-08T10:53:12;96795.20;;;25.66;44.37
43480;BME280;29067;35.492;-97.520;2023-09-08T10:55:42;96793.11;;;26.30;43.39
43480;BME280;29067;35.492;-97.520;2023-09-08T10:58:11;96796.36;;;25.90;44.21
43480;BME280;29067;35.492;-97.520;2023-09-08T11:03:02;96791.98;;;25.08;44.82
43480;BME280;29067;35.492;-97.520;2023-09-08T11:05:30;96792.05;;;25.87;44.55
43480;BME280;29067;35.492;-97.520;2023-09-08T11:07:58;96795.66;;;25.73;44.79
43480;BME280;29067;35.492;-97.520;2023-09-08T11:10:26;96795.16;;;25.48;44.69
43480;BME280;29067;35.492;-97.520;2023-09-08T11:13:01;96795.88;;;26.66;43.69
43480;BME280;29067;35.492;-97.520;2023-09-08T11:15:29;96797.75;;;26.28;44.12
43480;BME280;29067;35.492;-97.520;2023-09-08T11:17:57;96800.04;;;26.58;43.32
43480;BME280;29067;35.492;-97.520;2023-09-08T11:20:32;96797.92;;;27.08;43.21
43480;BME280;29067;35.492;-97.520;2023-09-08T11:23:00;96800.29;;;26.26;43.60
43480;BME280;29067;35.492;-97.520;2023-09-08T11:25:29;96800.28;;;26.19;43.74
43480;BME280;29067;35.492;-97.520;2023-09-08T11:27:57;96802.42;;;26.09;43.84
43480;BME280;29067;35.492;-97.520;2023-09-08T11:30:26;96805.00;;;27.12;43.24
43480;BME280;29067;35.492;-97.520;2023-09-08T11:32:54;96808.27;;;25.93;44.09
43480;BME280;29067;35.492;-97.520;2023-09-08T11:35:23;96806.57;;;27.35;42.58
43480;BME280;29067;35.492;-97.520;2023-09-08T11:37:59;96807.53;;;26.76;43.18
43480;BME280;29067;35.492;-97.520;2023-09-08T11:40:28;96813.86;;;27.17;42.93
43480;BME280;29067;35.492;-97.520;2023-09-08T11:42:56;96817.74;;;26.54;43.56
43480;BME280;29067;35.492;-97.520;2023-09-08T11:45:24;96820.94;;;26.03;44.28
43480;BME280;29067;35.492;-97.520;2023-09-08T11:47:53;96823.01;;;27.37;42.89
43480;BME280;29067;35.492;-97.520;2023-09-08T11:50:22;96825.69;;;26.76;43.78
43480;BME280;29067;35.492;-97.520;2023-09-08T11:52:52;96828.62;;;26.66;43.87
43480;BME280;29067;35.492;-97.520;2023-09-08T11:55:21;96836.16;;;26.55;44.09
43480;BME280;29067;35.492;-97.520;2023-09-08T11:57:51;96845.54;;;27.56;42.99
43480;BME280;29067;35.492;-97.520;2023-09-08T12:00:20;96852.17;;;27.09;43.45
43480;BME280;29067;35.492;-97.520;2023-09-08T12:02:50;96862.01;;;25.48;45.59
43480;BME280;29067;35.492;-97.520;2023-09-08T12:05:22;96868.67;;;26.10;45.06
43480;BME280;29067;35.492;-97.520;2023-09-08T12:07:51;96872.84;;;25.57;45.88
43480;BME280;29067;35.492;-97.520;2023-09-08T12:10:20;96877.43;;;26.01;45.48
43480;BME280;29067;35.492;-97.520;2023-09-08T12:12:50;96880.10;;;25.40;47.15
43480;BME280;29067;35.492;-97.520;2023-09-08T12:15:35;96881.47;;;24.97;47.05
43480;BME280;29067;35.492;-97.520;2023-09-08T12:18:05;96884.60;;;25.77;46.05
43480;BME280;29067;35.492;-97.520;2023-09-08T12:20:33;96891.11;;;26.04;46.34
43480;BME280;29067;35.492;-97.520;2023-09-08T12:23:03;96895.33;;;26.77;46.03
43480;BME280;29067;35.492;-97.520;2023-09-08T12:25:32;96903.48;;;25.76;46.22
43480;BME280;29067;35.492;-97.520;2023-09-08T12:28:00;96905.99;;;26.12;46.54
43480;BME280;29067;35.492;-97.520;2023-09-08T12:30:31;96912.11;;;25.43;46.90
43480;BME280;29067;35.492;-97.520;2023-09-08T12:33:00;96918.17;;;26.20;46.26
43480;BME280;29067;35.492;-97.520;2023-09-08T12:35:29;96926.29;;;25.38;47.52
43480;BME280;29067;35.492;-97.520;2023-09-08T12:37:59;96937.44;;;25.28;48.31
43480;BME280;29067;35.492;-97.520;2023-09-08T12:40:29;96952.39;;;24.78;49.29
43480;BME280;29067;35.492;-97.520;2023-09-08T12:42:57;96964.29;;;24.44;50.81
43480;BME280;29067;35.492;-97.520;2023-09-08T12:45:27;96975.92;;;24.75;50.41
43480;BME280;29067;35.492;-97.520;2023-09-08T12:47:58;96972.21;;;23.53;53.13
43480;BME280;29067;35.492;-97.520;2023-09-08T12:50:27;96973.85;;;23.02;54.51
43480;BME280;29067;35.492;-97.520;2023-09-08T12:52:55;96966.51;;;23.20;56.22
43480;BME280;29067;35.492;-97.520;2023-09-08T12:55:24;96975.65;;;22.53;58.37